Atlantic Beach, FL

1:58 AM EST on February 14, 2016 (GMT -0500)
Reed Island | | Change Station
CLOSE
Current Station
Personal Weather Station
Location: Jacksonville, FL
Elevation: 10 ft
Nearby Weather Stations

Elev 10 ft 30.39 °N, 81.52 °W | Updated 3 seconds ago

Clear
Clear
41.2 °F
Feels Like 41 °F
N
0.0
Wind Variable Wind from NW
Gusts 1.0 mph

Today
High -- | Low -- °F
--% Chance of Precip.
Yesterday
High -- | Low -- °F
Precip. -- in
Pressure 30.31 in
Visibility 9.0 miles
Clouds Clear
Windchill 41 °F
Dew Point 36 °F
Humidity 83%
Rainfall 0.00 in
Snow Depth Not available.
7:07 AM 6:13 PM
Waxing Crescent, 38% visible
METAR KCRG 140653Z AUTO 00000KT 9SM CLR 04/03 A3031 RMK AO2 RAB29RAEMM SLP263 P0000 T00440028 $
Pressure 30.31 in
Visibility 9.0 miles
Clouds Clear
Windchill 41 °F
Dew Point 36 °F
Humidity 83%
Rainfall 0.00 in
Snow Depth Not available.
7:07 AM 6:13 PM
Waxing Crescent, 38% visible
METAR KCRG 140653Z AUTO 00000KT 9SM CLR 04/03 A3031 RMK AO2 RAB29RAEMM SLP263 P0000 T00440028 $

10-Day Weather Forecast

Almanac

Astronomy

Feb. 14, 2016 Rise Set
Actual Time
Civil Twilight
Nautical Twilight
Astronomical Twilight
Moon
Length of Visible Light
Length of Day
Tomorrow will be .
, % of the Moon is Illuminated

Today's Extremes

State Highs State Lows

Community

WunderPhotos

Upload Photos

1,892,757 photos uploaded!

WunderBlog® & News

Nearby

Air Quality

  Air Quality AQ Index Pollutant
Not available.

Snow Depth

Station Depth Elevation

Earthquake Activity

City Distance Mag. Time & Date
Minimum magnitude displayed is 2.5.

Coastal Water Temperatures

Place Temperature

Stations

Nearby Weather Stations

Station Location Temp. Windchill Dew Point Humidity Wind Precip. Elev Updated Type
                   

Watches & Warnings

There are currently no watches in effect.